sensor_id;sensor_type;location;lat;lon;timestamp;P1;durP1;ratioP1;P2;durP2;ratioP2
48733;SDS011;34530;52.084;5.146;2022-12-05T00:01:57;21.42;;;15.20;;
48733;SDS011;34530;52.084;5.146;2022-12-05T00:04:22;22.20;;;15.63;;
48733;SDS011;34530;52.084;5.146;2022-12-05T00:06:48;23.15;;;15.60;;
48733;SDS011;34530;52.084;5.146;2022-12-05T00:09:14;20.70;;;16.35;;
48733;SDS011;34530;52.084;5.146;2022-12-05T00:11:40;21.33;;;15.70;;
48733;SDS011;34530;52.084;5.146;2022-12-05T00:14:08;19.90;;;14.60;;
48733;SDS011;34530;52.084;5.146;2022-12-05T00:16:35;21.70;;;14.77;;
48733;SDS011;34530;52.084;5.146;2022-12-05T00:19:02;20.85;;;14.93;;
48733;SDS011;34530;52.084;5.146;2022-12-05T00:21:30;21.15;;;15.02;;
48733;SDS011;34530;52.084;5.146;2022-12-05T00:23:57;20.92;;;14.55;;
48733;SDS011;34530;52.084;5.146;2022-12-05T00:26:23;20.17;;;15.07;;
48733;SDS011;34530;52.084;5.146;2022-12-05T00:28:49;19.08;;;14.60;;
48733;SDS011;34530;52.084;5.146;2022-12-05T00:31:17;21.05;;;14.95;;
48733;SDS011;34530;52.084;5.146;2022-12-05T00:33:45;18.25;;;13.98;;
48733;SDS011;34530;52.084;5.146;2022-12-05T00:36:15;20.30;;;14.60;;
48733;SDS011;34530;52.084;5.146;2022-12-05T00:38:43;22.25;;;14.20;;
48733;SDS011;34530;52.084;5.146;2022-12-05T00:41:16;22.30;;;15.55;;
48733;SDS011;34530;52.084;5.146;2022-12-05T00:43:44;20.60;;;15.43;;
48733;SDS011;34530;52.084;5.146;2022-12-05T00:46:12;21.73;;;14.85;;
48733;SDS011;34530;52.084;5.146;2022-12-05T00:48:40;20.27;;;14.63;;
48733;SDS011;34530;52.084;5.146;2022-12-05T00:51:11;21.05;;;14.10;;
48733;SDS011;34530;52.084;5.146;2022-12-05T00:53:38;19.48;;;14.10;;
48733;SDS011;34530;52.084;5.146;2022-12-05T00:56:14;19.13;;;13.48;;
48733;SDS011;34530;52.084;5.146;2022-12-05T00:58:42;20.13;;;14.10;;
48733;SDS011;34530;52.084;5.146;2022-12-05T01:01:09;20.25;;;13.77;;
48733;SDS011;34530;52.084;5.146;2022-12-05T01:03:37;24.77;;;15.32;;
48733;SDS011;34530;52.084;5.146;2022-12-05T01:06:03;19.73;;;14.85;;
48733;SDS011;34530;52.084;5.146;2022-12-05T01:08:33;21.58;;;14.98;;
48733;SDS011;34530;52.084;5.146;2022-12-05T01:10:59;22.30;;;14.77;;
48733;SDS011;34530;52.084;5.146;2022-12-05T01:13:26;22.98;;;14.07;;
48733;SDS011;34530;52.084;5.146;2022-12-05T01:15:52;22.15;;;14.13;;
48733;SDS011;34530;52.084;5.146;2022-12-05T01:18:18;18.63;;;13.70;;
48733;SDS011;34530;52.084;5.146;2022-12-05T01:20:45;22.65;;;14.18;;
48733;SDS011;34530;52.084;5.146;2022-12-05T01:23:11;20.80;;;14.00;;
48733;SDS011;34530;52.084;5.146;2022-12-05T01:25:47;21.40;;;13.77;;
48733;SDS011;34530;52.084;5.146;2022-12-05T01:28:14;22.20;;;14.27;;
48733;SDS011;34530;52.084;5.146;2022-12-05T01:30:44;21.77;;;14.85;;
48733;SDS011;34530;52.084;5.146;2022-12-05T01:33:11;19.58;;;13.85;;
48733;SDS011;34530;52.084;5.146;2022-12-05T01:35:37;20.88;;;14.10;;
48733;SDS011;34530;52.084;5.146;2022-12-05T01:38:05;19.63;;;14.18;;
48733;SDS011;34530;52.084;5.146;2022-12-05T01:40:31;20.20;;;14.23;;
48733;SDS011;34530;52.084;5.146;2022-12-05T01:42:59;19.83;;;13.73;;
48733;SDS011;34530;52.084;5.146;2022-12-05T01:48:00;19.23;;;14.43;;
48733;SDS011;34530;52.084;5.146;2022-12-05T01:50:29;18.02;;;13.35;;
48733;SDS011;34530;52.084;5.146;2022-12-05T01:52:57;18.42;;;13.57;;
48733;SDS011;34530;52.084;5.146;2022-12-05T01:55:22;19.10;;;13.13;;
48733;SDS011;34530;52.084;5.146;2022-12-05T01:57:48;21.95;;;13.13;;
48733;SDS011;34530;52.084;5.146;2022-12-05T02:00:17;17.75;;;13.00;;
48733;SDS011;34530;52.084;5.146;2022-12-05T02:02:49;19.10;;;13.32;;
48733;SDS011;34530;52.084;5.146;2022-12-05T02:05:24;20.00;;;13.38;;
48733;SDS011;34530;52.084;5.146;2022-12-05T02:07:59;17.00;;;13.02;;
48733;SDS011;34530;52.084;5.146;2022-12-05T02:10:29;17.38;;;13.00;;
48733;SDS011;34530;52.084;5.146;2022-12-05T02:13:01;19.38;;;12.77;;
48733;SDS011;34530;52.084;5.146;2022-12-05T02:15:42;19.30;;;13.05;;
48733;SDS011;34530;52.084;5.146;2022-12-05T02:32:13;17.85;;;12.40;;
48733;SDS011;34530;52.084;5.146;2022-12-05T02:37:58;16.08;;;12.20;;
48733;SDS011;34530;52.084;5.146;2022-12-05T02:41:04;16.50;;;13.05;;
48733;SDS011;34530;52.084;5.146;2022-12-05T02:43:45;18.23;;;12.00;;
48733;SDS011;34530;52.084;5.146;2022-12-05T02:46:44;17.23;;;12.32;;
48733;SDS011;34530;52.084;5.146;2022-12-05T02:49:13;17.08;;;12.63;;
48733;SDS011;34530;52.084;5.146;2022-12-05T02:51:46;15.90;;;12.43;;
48733;SDS011;34530;52.084;5.146;2022-12-05T02:54:17;15.27;;;11.82;;
48733;SDS011;34530;52.084;5.146;2022-12-05T02:56:45;17.17;;;12.05;;
48733;SDS011;34530;52.084;5.146;2022-12-05T02:59:13;15.20;;;11.48;;
48733;SDS011;34530;52.084;5.146;2022-12-05T03:01:39;16.63;;;12.25;;
48733;SDS011;34530;52.084;5.146;2022-12-05T03:04:05;15.48;;;11.90;;
48733;SDS011;34530;52.084;5.146;2022-12-05T03:06:42;15.70;;;12.40;;
48733;SDS011;34530;52.084;5.146;2022-12-05T03:09:12;16.42;;;11.70;;
48733;SDS011;34530;52.084;5.146;2022-12-05T03:11:48;15.82;;;11.43;;
48733;SDS011;34530;52.084;5.146;2022-12-05T03:14:18;15.50;;;11.60;;
48733;SDS011;34530;52.084;5.146;2022-12-05T03:16:50;16.35;;;12.15;;
48733;SDS011;34530;52.084;5.146;2022-12-05T03:19:31;14.73;;;11.13;;
48733;SDS011;34530;52.084;5.146;2022-12-05T03:22:29;14.38;;;10.95;;
48733;SDS011;34530;52.084;5.146;2022-12-05T03:24:59;15.27;;;11.10;;
48733;SDS011;34530;52.084;5.146;2022-12-05T03:27:31;14.52;;;11.55;;
48733;SDS011;34530;52.084;5.146;2022-12-05T03:30:05;15.05;;;11.25;;
48733;SDS011;34530;52.084;5.146;2022-12-05T03:32:36;14.57;;;11.75;;
48733;SDS011;34530;52.084;5.146;2022-12-05T03:43:04;14.73;;;11.23;;
48733;SDS011;34530;52.084;5.146;2022-12-05T03:45:39;14.50;;;10.95;;
48733;SDS011;34530;52.084;5.146;2022-12-05T03:51:02;14.02;;;10.82;;
48733;SDS011;34530;52.084;5.146;2022-12-05T03:53:33;15.50;;;11.55;;
48733;SDS011;34530;52.084;5.146;2022-12-05T03:56:13;14.43;;;11.55;;
48733;SDS011;34530;52.084;5.146;2022-12-05T03:58:49;14.00;;;11.23;;
48733;SDS011;34530;52.084;5.146;2022-12-05T04:01:21;13.70;;;10.57;;
48733;SDS011;34530;52.084;5.146;2022-12-05T04:03:51;13.45;;;10.85;;
48733;SDS011;34530;52.084;5.146;2022-12-05T04:06:28;14.73;;;10.82;;
48733;SDS011;34530;52.084;5.146;2022-12-05T04:08:58;12.18;;;10.60;;
48733;SDS011;34530;52.084;5.146;2022-12-05T04:11:29;16.05;;;11.27;;
48733;SDS011;34530;52.084;5.146;2022-12-05T04:14:01;13.88;;;10.43;;
48733;SDS011;34530;52.084;5.146;2022-12-05T04:16:45;13.73;;;10.60;;
48733;SDS011;34530;52.084;5.146;2022-12-05T04:22:32;12.98;;;10.45;;
48733;SDS011;34530;52.084;5.146;2022-12-05T04:24:59;13.13;;;10.75;;
48733;SDS011;34530;52.084;5.146;2022-12-05T04:30:15;12.80;;;10.10;;
48733;SDS011;34530;52.084;5.146;2022-12-05T04:32:45;13.00;;;9.80;;
48733;SDS011;34530;52.084;5.146;2022-12-05T04:35:30;14.73;;;10.30;;
48733;SDS011;34530;52.084;5.146;2022-12-05T04:38:03;12.88;;;9.95;;
48733;SDS011;34530;52.084;5.146;2022-12-05T04:40:36;12.20;;;9.73;;
48733;SDS011;34530;52.084;5.146;2022-12-05T04:43:08;13.98;;;10.50;;
48733;SDS011;34530;52.084;5.146;2022-12-05T04:45:36;14.23;;;10.60;;
48733;SDS011;34530;52.084;5.146;2022-12-05T04:48:06;13.85;;;10.50;;
48733;SDS011;34530;52.084;5.146;2022-12-05T04:50:36;12.52;;;9.73;;
48733;SDS011;34530;52.084;5.146;2022-12-05T04:53:03;13.13;;;10.35;;
48733;SDS011;34530;52.084;5.146;2022-12-05T04:55:31;12.77;;;9.50;;
48733;SDS011;34530;52.084;5.146;2022-12-05T04:58:02;11.70;;;9.82;;
48733;SDS011;34530;52.084;5.146;2022-12-05T05:00:34;12.38;;;10.20;;
48733;SDS011;34530;52.084;5.146;2022-12-05T05:03:27;13.50;;;9.63;;
48733;SDS011;34530;52.084;5.146;2022-12-05T05:06:03;13.10;;;9.98;;
48733;SDS011;34530;52.084;5.146;2022-12-05T05:08:30;11.60;;;9.45;;
48733;SDS011;34530;52.084;5.146;2022-12-05T05:14:03;10.95;;;9.05;;
48733;SDS011;34530;52.084;5.146;2022-12-05T05:16:30;12.38;;;9.60;;
48733;SDS011;34530;52.084;5.146;2022-12-05T05:18:57;13.68;;;9.82;;
48733;SDS011;34530;52.084;5.146;2022-12-05T05:21:27;13.00;;;9.45;;
48733;SDS011;34530;52.084;5.146;2022-12-05T05:23:55;11.20;;;8.82;;
48733;SDS011;34530;52.084;5.146;2022-12-05T05:26:21;10.85;;;8.77;;
48733;SDS011;34530;52.084;5.146;2022-12-05T05:28:47;12.40;;;8.98;;
48733;SDS011;34530;52.084;5.146;2022-12-05T05:31:13;12.07;;;9.07;;
48733;SDS011;34530;52.084;5.146;2022-12-05T05:33:40;10.80;;;8.18;;
48733;SDS011;34530;52.084;5.146;2022-12-05T05:36:10;10.48;;;8.98;;
48733;SDS011;34530;52.084;5.146;2022-12-05T05:38:40;10.63;;;8.65;;
48733;SDS011;34530;52.084;5.146;2022-12-05T05:41:14;9.65;;;8.18;;
48733;SDS011;34530;52.084;5.146;2022-12-05T05:43:45;11.40;;;8.68;;
48733;SDS011;34530;52.084;5.146;2022-12-05T05:46:11;10.45;;;8.30;;
48733;SDS011;34530;52.084;5.146;2022-12-05T05:48:41;11.32;;;8.65;;
48733;SDS011;34530;52.084;5.146;2022-12-05T05:51:08;12.00;;;8.82;;
48733;SDS011;34530;52.084;5.146;2022-12-05T05:53:36;9.10;;;7.35;;
48733;SDS011;34530;52.084;5.146;2022-12-05T05:56:02;11.07;;;8.52;;
48733;SDS011;34530;52.084;5.146;2022-12-05T05:58:36;14.02;;;9.23;;
48733;SDS011;34530;52.084;5.146;2022-12-05T06:01:06;10.57;;;8.68;;
48733;SDS011;34530;52.084;5.146;2022-12-05T06:03:39;9.80;;;8.38;;
48733;SDS011;34530;52.084;5.146;2022-12-05T06:06:06;10.75;;;7.90;;
48733;SDS011;34530;52.084;5.146;2022-12-05T06:08:35;9.90;;;8.07;;
48733;SDS011;34530;52.084;5.146;2022-12-05T06:14:00;11.65;;;8.82;;
48733;SDS011;34530;52.084;5.146;2022-12-05T06:16:26;11.65;;;8.52;;
48733;SDS011;34530;52.084;5.146;2022-12-05T06:18:52;10.10;;;7.85;;
48733;SDS011;34530;52.084;5.146;2022-12-05T06:21:18;10.95;;;7.78;;
48733;SDS011;34530;52.084;5.146;2022-12-05T06:23:44;52.03;;;17.50;;
48733;SDS011;34530;52.084;5.146;2022-12-05T06:26:10;38.05;;;16.10;;
48733;SDS011;34530;52.084;5.146;2022-12-05T06:28:38;25.77;;;12.98;;
48733;SDS011;34530;52.084;5.146;2022-12-05T06:31:08;35.13;;;13.65;;
48733;SDS011;34530;52.084;5.146;2022-12-05T06:33:35;32.88;;;12.10;;
48733;SDS011;34530;52.084;5.146;2022-12-05T06:36:05;23.90;;;11.65;;
48733;SDS011;34530;52.084;5.146;2022-12-05T06:38:32;21.05;;;11.75;;
48733;SDS011;34530;52.084;5.146;2022-12-05T06:40:58;21.40;;;11.18;;
48733;SDS011;34530;52.084;5.146;2022-12-05T06:43:24;19.67;;;11.55;;
48733;SDS011;34530;52.084;5.146;2022-12-05T06:45:50;17.95;;;10.80;;
48733;SDS011;34530;52.084;5.146;2022-12-05T06:48:15;22.88;;;11.48;;
48733;SDS011;34530;52.084;5.146;2022-12-05T06:50:50;20.60;;;10.77;;
48733;SDS011;34530;52.084;5.146;2022-12-05T06:53:17;21.73;;;11.05;;
48733;SDS011;34530;52.084;5.146;2022-12-05T06:55:43;19.55;;;10.88;;
48733;SDS011;34530;52.084;5.146;2022-12-05T06:58:18;17.45;;;10.90;;
48733;SDS011;34530;52.084;5.146;2022-12-05T07:00:44;20.13;;;10.30;;
48733;SDS011;34530;52.084;5.146;2022-12-05T07:03:28;17.73;;;10.63;;
48733;SDS011;34530;52.084;5.146;2022-12-05T07:05:54;13.90;;;9.35;;
48733;SDS011;34530;52.084;5.146;2022-12-05T07:08:19;17.50;;;10.70;;
48733;SDS011;34530;52.084;5.146;2022-12-05T07:10:49;19.98;;;10.60;;
48733;SDS011;34530;52.084;5.146;2022-12-05T07:13:16;17.17;;;10.68;;
48733;SDS011;34530;52.084;5.146;2022-12-05T07:15:41;17.92;;;10.68;;
48733;SDS011;34530;52.084;5.146;2022-12-05T07:18:07;15.73;;;9.20;;
48733;SDS011;34530;52.084;5.146;2022-12-05T07:20:33;19.35;;;9.65;;
48733;SDS011;34530;52.084;5.146;2022-12-05T07:22:58;14.15;;;9.35;;
48733;SDS011;34530;52.084;5.146;2022-12-05T07:25:24;15.80;;;9.40;;
48733;SDS011;34530;52.084;5.146;2022-12-05T07:27:50;18.27;;;10.32;;
48733;SDS011;34530;52.084;5.146;2022-12-05T07:30:15;16.60;;;9.55;;
48733;SDS011;34530;52.084;5.146;2022-12-05T07:32:42;18.73;;;9.88;;
48733;SDS011;34530;52.084;5.146;2022-12-05T07:35:08;16.80;;;10.02;;
48733;SDS011;34530;52.084;5.146;2022-12-05T07:37:33;15.10;;;8.98;;
48733;SDS011;34530;52.084;5.146;2022-12-05T07:39:59;19.15;;;9.60;;
48733;SDS011;34530;52.084;5.146;2022-12-05T07:42:25;17.98;;;9.95;;
48733;SDS011;34530;52.084;5.146;2022-12-05T07:44:50;14.25;;;9.65;;
48733;SDS011;34530;52.084;5.146;2022-12-05T07:47:16;17.60;;;9.90;;
48733;SDS011;34530;52.084;5.146;2022-12-05T07:49:41;19.00;;;9.95;;
48733;SDS011;34530;52.084;5.146;2022-12-05T07:52:07;17.55;;;9.43;;
48733;SDS011;34530;52.084;5.146;2022-12-05T07:54:33;13.07;;;8.60;;
48733;SDS011;34530;52.084;5.146;2022-12-05T07:56:59;13.60;;;8.85;;
48733;SDS011;34530;52.084;5.146;2022-12-05T07:59:25;13.80;;;9.17;;
48733;SDS011;34530;52.084;5.146;2022-12-05T08:01:50;19.00;;;10.57;;
48733;SDS011;34530;52.084;5.146;2022-12-05T08:04:16;21.10;;;10.00;;
48733;SDS011;34530;52.084;5.146;2022-12-05T08:06:42;18.27;;;9.75;;
48733;SDS011;34530;52.084;5.146;2022-12-05T08:09:07;25.80;;;11.23;;
48733;SDS011;34530;52.084;5.146;2022-12-05T08:11:33;19.55;;;9.15;;
48733;SDS011;34530;52.084;5.146;2022-12-05T08:14:02;15.68;;;8.82;;
48733;SDS011;34530;52.084;5.146;2022-12-05T08:16:29;17.02;;;9.48;;
48733;SDS011;34530;52.084;5.146;2022-12-05T08:18:57;21.80;;;9.27;;
48733;SDS011;34530;52.084;5.146;2022-12-05T08:21:24;16.45;;;8.55;;
48733;SDS011;34530;52.084;5.146;2022-12-05T08:23:50;13.98;;;8.30;;
48733;SDS011;34530;52.084;5.146;2022-12-05T08:26:17;15.40;;;8.88;;
48733;SDS011;34530;52.084;5.146;2022-12-05T08:28:54;15.82;;;8.80;;
48733;SDS011;34530;52.084;5.146;2022-12-05T08:31:22;15.88;;;8.82;;
48733;SDS011;34530;52.084;5.146;2022-12-05T08:33:49;15.82;;;8.55;;
48733;SDS011;34530;52.084;5.146;2022-12-05T08:36:16;13.63;;;8.18;;
48733;SDS011;34530;52.084;5.146;2022-12-05T08:38:43;15.57;;;8.18;;
48733;SDS011;34530;52.084;5.146;2022-12-05T08:41:11;12.02;;;8.10;;
48733;SDS011;34530;52.084;5.146;2022-12-05T08:43:41;12.68;;;7.90;;
48733;SDS011;34530;52.084;5.146;2022-12-05T08:46:08;11.23;;;7.38;;
48733;SDS011;34530;52.084;5.146;2022-12-05T08:48:35;14.45;;;8.10;;
48733;SDS011;34530;52.084;5.146;2022-12-05T08:51:08;14.20;;;6.63;;
48733;SDS011;34530;52.084;5.146;2022-12-05T08:53:36;13.85;;;7.30;;
48733;SDS011;34530;52.084;5.146;2022-12-05T08:56:02;14.57;;;7.43;;
48733;SDS011;34530;52.084;5.146;2022-12-05T08:58:29;11.32;;;7.28;;
48733;SDS011;34530;52.084;5.146;2022-12-05T09:01:16;13.07;;;6.72;;
48733;SDS011;34530;52.084;5.146;2022-12-05T09:03:42;11.90;;;6.07;;
48733;SDS011;34530;52.084;5.146;2022-12-05T09:06:15;10.63;;;6.60;;
48733;SDS011;34530;52.084;5.146;2022-12-05T09:08:43;11.77;;;7.03;;
48733;SDS011;34530;52.084;5.146;2022-12-05T09:11:13;12.02;;;6.38;;
48733;SDS011;34530;52.084;5.146;2022-12-05T09:13:40;9.95;;;6.50;;
48733;SDS011;34530;52.084;5.146;2022-12-05T09:18:40;9.20;;;6.35;;
48733;SDS011;34530;52.084;5.146;2022-12-05T09:21:10;8.35;;;5.55;;
48733;SDS011;34530;52.084;5.146;2022-12-05T09:23:39;9.60;;;5.75;;
48733;SDS011;34530;52.084;5.146;2022-12-05T09:26:06;7.18;;;5.88;;
48733;SDS011;34530;52.084;5.146;2022-12-05T09:28:34;9.40;;;5.78;;
48733;SDS011;34530;52.084;5.146;2022-12-05T09:31:01;9.25;;;5.63;;
48733;SDS011;34530;52.084;5.146;2022-12-05T09:33:29;7.80;;;5.85;;
48733;SDS011;34530;52.084;5.146;2022-12-05T09:35:56;8.98;;;5.57;;
48733;SDS011;34530;52.084;5.146;2022-12-05T09:38:22;8.63;;;5.38;;
48733;SDS011;34530;52.084;5.146;2022-12-05T09:40:50;7.75;;;5.60;;
48733;SDS011;34530;52.084;5.146;2022-12-05T09:43:31;7.78;;;6.03;;
48733;SDS011;34530;52.084;5.146;2022-12-05T09:46:20;6.68;;;5.40;;
48733;SDS011;34530;52.084;5.146;2022-12-05T09:48:57;8.50;;;5.68;;
48733;SDS011;34530;52.084;5.146;2022-12-05T09:51:23;8.98;;;5.13;;
48733;SDS011;34530;52.084;5.146;2022-12-05T09:53:50;8.40;;;5.35;;
48733;SDS011;34530;52.084;5.146;2022-12-05T09:56:26;7.47;;;5.35;;
48733;SDS011;34530;52.084;5.146;2022-12-05T09:58:54;7.13;;;4.82;;
48733;SDS011;34530;52.084;5.146;2022-12-05T10:01:38;9.98;;;5.20;;
48733;SDS011;34530;52.084;5.146;2022-12-05T10:17:37;11.48;;;4.88;;
48733;SDS011;34530;52.084;5.146;2022-12-05T10:22:47;6.95;;;4.43;;
48733;SDS011;34530;52.084;5.146;2022-12-05T10:25:21;6.25;;;3.88;;
48733;SDS011;34530;52.084;5.146;2022-12-05T10:27:50;10.25;;;4.38;;
48733;SDS011;34530;52.084;5.146;2022-12-05T10:30:19;7.93;;;4.65;;
48733;SDS011;34530;52.084;5.146;2022-12-05T10:32:53;4.93;;;3.97;;
48733;SDS011;34530;52.084;5.146;2022-12-05T10:35:21;5.78;;;4.78;;
48733;SDS011;34530;52.084;5.146;2022-12-05T10:37:53;5.93;;;4.05;;
48733;SDS011;34530;52.084;5.146;2022-12-05T10:40:22;8.50;;;4.07;;
48733;SDS011;34530;52.084;5.146;2022-12-05T10:42:57;7.05;;;4.32;;
48733;SDS011;34530;52.084;5.146;2022-12-05T10:45:23;7.00;;;4.25;;
48733;SDS011;34530;52.084;5.146;2022-12-05T10:47:52;7.25;;;3.97;;
48733;SDS011;34530;52.084;5.146;2022-12-05T10:50:34;4.63;;;3.65;;
48733;SDS011;34530;52.084;5.146;2022-12-05T10:53:01;6.97;;;3.80;;
48733;SDS011;34530;52.084;5.146;2022-12-05T10:55:29;8.30;;;4.00;;
48733;SDS011;34530;52.084;5.146;2022-12-05T11:03:32;5.40;;;3.85;;
48733;SDS011;34530;52.084;5.146;2022-12-05T11:06:01;5.40;;;3.65;;
48733;SDS011;34530;52.084;5.146;2022-12-05T11:08:39;4.65;;;3.42;;
48733;SDS011;34530;52.084;5.146;2022-12-05T11:11:05;5.07;;;3.50;;
48733;SDS011;34530;52.084;5.146;2022-12-05T11:13:50;3.85;;;3.35;;
48733;SDS011;34530;52.084;5.146;2022-12-05T11:16:24;7.47;;;3.45;;
48733;SDS011;34530;52.084;5.146;2022-12-05T11:18:52;4.30;;;3.22;;
48733;SDS011;34530;52.084;5.146;2022-12-05T11:21:18;3.30;;;3.00;;
48733;SDS011;34530;52.084;5.146;2022-12-05T11:23:45;11.55;;;6.97;;
48733;SDS011;34530;52.084;5.146;2022-12-05T11:26:45;79.57;;;38.05;;
48733;SDS011;34530;52.084;5.146;2022-12-05T11:29:04;236.55;;;97.72;;
48733;SDS011;34530;52.084;5.146;2022-12-05T11:32:03;270.00;;;115.53;;
48733;SDS011;34530;52.084;5.146;2022-12-05T11:34:34;275.95;;;122.88;;
48733;SDS011;34530;52.084;5.146;2022-12-05T11:37:12;281.08;;;124.50;;
48733;SDS011;34530;52.084;5.146;2022-12-05T11:39:42;283.45;;;125.85;;
48733;SDS011;34530;52.084;5.146;2022-12-05T11:42:22;285.63;;;123.82;;
48733;SDS011;34530;52.084;5.146;2022-12-05T11:45:01;291.65;;;123.07;;
48733;SDS011;34530;52.084;5.146;2022-12-05T11:50:42;257.83;;;113.75;;
48733;SDS011;34530;52.084;5.146;2022-12-05T11:56:14;239.05;;;104.60;;
48733;SDS011;34530;52.084;5.146;2022-12-05T11:58:59;190.35;;;85.70;;
48733;SDS011;34530;52.084;5.146;2022-12-05T12:06:51;191.02;;;82.60;;
48733;SDS011;34530;52.084;5.146;2022-12-05T12:09:41;177.13;;;81.15;;
48733;SDS011;34530;52.084;5.146;2022-12-05T12:17:42;157.07;;;71.47;;
48733;SDS011;34530;52.084;5.146;2022-12-05T12:21:04;162.65;;;72.03;;
48733;SDS011;34530;52.084;5.146;2022-12-05T12:24:01;159.50;;;68.70;;
48733;SDS011;34530;52.084;5.146;2022-12-05T12:29:33;144.93;;;64.07;;
48733;SDS011;34530;52.084;5.146;2022-12-05T12:32:35;135.52;;;61.35;;
48733;SDS011;34530;52.084;5.146;2022-12-05T12:35:24;132.05;;;59.63;;
48733;SDS011;34530;52.084;5.146;2022-12-05T12:40:49;130.77;;;55.13;;
48733;SDS011;34530;52.084;5.146;2022-12-05T12:43:37;122.28;;;55.72;;
48733;SDS011;34530;52.084;5.146;2022-12-05T12:46:32;124.82;;;59.75;;
48733;SDS011;34530;52.084;5.146;2022-12-05T12:51:51;109.80;;;50.45;;
48733;SDS011;34530;52.084;5.146;2022-12-05T12:57:26;106.87;;;51.90;;
48733;SDS011;34530;52.084;5.146;2022-12-05T13:02:44;96.38;;;46.58;;
48733;SDS011;34530;52.084;5.146;2022-12-05T13:05:37;95.35;;;43.47;;
48733;SDS011;34530;52.084;5.146;2022-12-05T13:08:11;103.30;;;43.03;;
48733;SDS011;34530;52.084;5.146;2022-12-05T13:10:44;90.28;;;43.33;;
48733;SDS011;34530;52.084;5.146;2022-12-05T13:13:12;99.22;;;45.60;;
48733;SDS011;34530;52.084;5.146;2022-12-05T13:15:49;88.28;;;42.20;;
48733;SDS011;34530;52.084;5.146;2022-12-05T13:18:17;94.68;;;42.67;;
48733;SDS011;34530;52.084;5.146;2022-12-05T13:20:53;95.85;;;41.10;;
48733;SDS011;34530;52.084;5.146;2022-12-05T13:23:25;87.70;;;39.08;;
48733;SDS011;34530;52.084;5.146;2022-12-05T13:25:54;83.30;;;40.03;;
48733;SDS011;34530;52.084;5.146;2022-12-05T13:28:24;83.38;;;38.78;;
48733;SDS011;34530;52.084;5.146;2022-12-05T13:30:56;82.47;;;38.63;;
48733;SDS011;34530;52.084;5.146;2022-12-05T13:33:44;82.07;;;37.28;;
48733;SDS011;34530;52.084;5.146;2022-12-05T13:36:14;75.13;;;36.17;;
48733;SDS011;34530;52.084;5.146;2022-12-05T13:39:06;73.55;;;33.97;;
48733;SDS011;34530;52.084;5.146;2022-12-05T13:42:03;74.25;;;34.03;;
48733;SDS011;34530;52.084;5.146;2022-12-05T13:44:45;73.30;;;34.03;;
48733;SDS011;34530;52.084;5.146;2022-12-05T13:47:31;73.18;;;38.03;;
48733;SDS011;34530;52.084;5.146;2022-12-05T13:52:53;67.32;;;32.80;;
48733;SDS011;34530;52.084;5.146;2022-12-05T13:57:57;66.28;;;32.85;;
48733;SDS011;34530;52.084;5.146;2022-12-05T14:05:55;61.35;;;29.70;;
48733;SDS011;34530;52.084;5.146;2022-12-05T14:15:47;57.90;;;27.75;;
48733;SDS011;34530;52.084;5.146;2022-12-05T14:18:15;55.83;;;29.77;;
48733;SDS011;34530;52.084;5.146;2022-12-05T14:23:52;55.75;;;26.60;;
48733;SDS011;34530;52.084;5.146;2022-12-05T14:29:35;47.63;;;25.05;;
48733;SDS011;34530;52.084;5.146;2022-12-05T14:32:24;49.22;;;24.48;;
48733;SDS011;34530;52.084;5.146;2022-12-05T14:37:41;43.28;;;23.33;;
48733;SDS011;34530;52.084;5.146;2022-12-05T14:43:02;46.17;;;21.13;;
48733;SDS011;34530;52.084;5.146;2022-12-05T14:50:45;42.33;;;21.05;;
48733;SDS011;34530;52.084;5.146;2022-12-05T14:55:56;37.05;;;19.35;;
48733;SDS011;34530;52.084;5.146;2022-12-05T15:01:21;40.35;;;19.98;;
48733;SDS011;34530;52.084;5.146;2022-12-05T15:06:52;38.05;;;18.92;;
48733;SDS011;34530;52.084;5.146;2022-12-05T15:09:29;39.25;;;18.83;;
48733;SDS011;34530;52.084;5.146;2022-12-05T15:12:09;38.33;;;18.00;;
48733;SDS011;34530;52.084;5.146;2022-12-05T15:17:49;35.50;;;18.38;;
48733;SDS011;34530;52.084;5.146;2022-12-05T15:20:24;33.63;;;17.35;;
48733;SDS011;34530;52.084;5.146;2022-12-05T15:26:18;27.80;;;15.05;;
48733;SDS011;34530;52.084;5.146;2022-12-05T15:31:28;23.48;;;13.15;;
48733;SDS011;34530;52.084;5.146;2022-12-05T15:33:57;26.48;;;12.73;;
48733;SDS011;34530;52.084;5.146;2022-12-05T15:36:28;23.25;;;11.00;;
48733;SDS011;34530;52.084;5.146;2022-12-05T15:39:13;24.02;;;12.95;;
48733;SDS011;34530;52.084;5.146;2022-12-05T15:41:44;21.55;;;11.60;;
48733;SDS011;34530;52.084;5.146;2022-12-05T15:44:10;22.88;;;11.15;;
48733;SDS011;34530;52.084;5.146;2022-12-05T15:46:36;20.60;;;11.10;;
48733;SDS011;34530;52.084;5.146;2022-12-05T15:49:14;22.02;;;10.82;;
48733;SDS011;34530;52.084;5.146;2022-12-05T15:51:41;22.58;;;11.48;;
48733;SDS011;34530;52.084;5.146;2022-12-05T15:54:12;18.45;;;10.50;;
48733;SDS011;34530;52.084;5.146;2022-12-05T15:59:23;18.23;;;9.40;;
48733;SDS011;34530;52.084;5.146;2022-12-05T16:02:02;20.70;;;10.48;;
48733;SDS011;34530;52.084;5.146;2022-12-05T16:04:41;21.42;;;10.63;;
48733;SDS011;34530;52.084;5.146;2022-12-05T16:07:20;20.20;;;10.15;;
48733;SDS011;34530;52.084;5.146;2022-12-05T16:09:48;19.52;;;10.52;;
48733;SDS011;34530;52.084;5.146;2022-12-05T16:12:22;19.02;;;9.88;;
48733;SDS011;34530;52.084;5.146;2022-12-05T16:14:55;17.48;;;9.50;;
48733;SDS011;34530;52.084;5.146;2022-12-05T16:17:29;13.30;;;8.45;;
48733;SDS011;34530;52.084;5.146;2022-12-05T16:22:43;15.27;;;8.35;;
48733;SDS011;34530;52.084;5.146;2022-12-05T16:25:15;16.25;;;8.07;;
48733;SDS011;34530;52.084;5.146;2022-12-05T16:28:31;15.55;;;8.38;;
48733;SDS011;34530;52.084;5.146;2022-12-05T16:30:35;14.55;;;8.32;;
48733;SDS011;34530;52.084;5.146;2022-12-05T16:33:03;14.93;;;7.35;;
48733;SDS011;34530;52.084;5.146;2022-12-05T16:35:39;16.55;;;7.82;;
48733;SDS011;34530;52.084;5.146;2022-12-05T16:38:11;16.48;;;8.13;;
48733;SDS011;34530;52.084;5.146;2022-12-05T16:44:27;15.98;;;8.38;;
48733;SDS011;34530;52.084;5.146;2022-12-05T16:46:46;14.63;;;7.45;;
48733;SDS011;34530;52.084;5.146;2022-12-05T16:52:31;16.45;;;7.70;;
48733;SDS011;34530;52.084;5.146;2022-12-05T16:54:39;18.65;;;7.97;;
48733;SDS011;34530;52.084;5.146;2022-12-05T16:57:05;19.75;;;8.30;;
48733;SDS011;34530;52.084;5.146;2022-12-05T16:59:36;27.38;;;8.82;;
48733;SDS011;34530;52.084;5.146;2022-12-05T17:02:03;20.65;;;11.15;;
48733;SDS011;34530;52.084;5.146;2022-12-05T17:04:34;22.42;;;10.90;;
48733;SDS011;34530;52.084;5.146;2022-12-05T17:07:00;38.33;;;12.35;;
48733;SDS011;34530;52.084;5.146;2022-12-05T17:09:25;29.52;;;11.82;;
48733;SDS011;34530;52.084;5.146;2022-12-05T17:11:52;24.55;;;11.13;;
48733;SDS011;34530;52.084;5.146;2022-12-05T17:14:21;32.67;;;10.40;;
48733;SDS011;34530;52.084;5.146;2022-12-05T17:16:47;21.65;;;11.88;;
48733;SDS011;34530;52.084;5.146;2022-12-05T17:19:12;25.88;;;11.38;;
48733;SDS011;34530;52.084;5.146;2022-12-05T17:21:38;22.55;;;10.77;;
48733;SDS011;34530;52.084;5.146;2022-12-05T17:24:14;28.90;;;10.75;;
48733;SDS011;34530;52.084;5.146;2022-12-05T17:26:41;22.02;;;10.27;;
48733;SDS011;34530;52.084;5.146;2022-12-05T17:29:08;22.08;;;9.93;;
48733;SDS011;34530;52.084;5.146;2022-12-05T17:31:34;23.75;;;10.98;;
48733;SDS011;34530;52.084;5.146;2022-12-05T17:34:00;22.88;;;9.95;;